Latest Weather Observations for Viewbank

IDV60801

Issued at 2:02 pm EST Saturday 28 May 2016 (issued every 30 minutes, with the page automatically refreshed every 10 minutes)

About weather observations | Map of weather stations | Latest weather observations for VIC | Other Formats
Station Details ID: 086068 Name: VIEWBANK Lat: -37.74 Lon: 145.10 Height: 66.1 m
Data from the previous 72 hours. | See also: Recent months at Viewbank
Date/Time
EST
Temp
°C
App
Temp
°C
Dew
Point
Rel
Hum
%
Delta-T
°C
Wind Press
QNH
hPa
Press
MSL
hPa
Rain
since 9 am
mm
Dir
 
Spd
km/h
Gust
km/h
Spd
kts
Gust
kts
28/02:00pm 12.7 10.3 8.8 77 2.0 SSW 11 19 6 10 1011.5 1011.6 0.4
28/01:30pm 11.9 9.0 9.5 85 1.2 SSW 15 22 8 12 1011.5 1011.6 0.4
28/01:00pm 11.7 8.4 9.4 86 1.2 SSW 17 26 9 14 1011.6 1011.7 0.4
28/12:30pm 11.6 9.6 11.4 99 0.1 SW 13 22 7 12 1011.4 1011.5 0.4
28/12:00pm 10.6 8.3 10.6 100 0.0 SW 13 24 7 13 1011.4 1011.5 0.4
28/11:30am 11.2 8.3 9.8 91 0.7 WSW 15 24 8 13 1011.4 1011.5 0.0
28/11:00am 10.9 10.7 10.4 97 0.3 ESE 2 7 1 4 1011.3 1011.4 0.0
28/10:30am 8.8 8.1 8.7 99 0.0 ESE 2 7 1 4 1011.6 1011.7 0.0
28/10:00am 7.5 5.8 7.5 100 0.0 ESE 6 9 3 5 1011.4 1011.5 0.0
28/09:30am 6.5 4.6 6.5 100 0.0 E 6 9 3 5 1011.2 1011.3 0.0
28/09:00am 5.5 3.3 5.5 100 0.0 ENE 6 9 3 5 1010.8 1010.9 0.2
28/08:30am 4.8 2.5 4.8 100 0.0 ENE 6 9 3 5 1010.7 1010.7 0.2
28/08:00am 4.3 1.9 4.3 100 0.0 ENE 6 7 3 4 1010.4 1010.4 0.2
28/07:30am 4.0 1.5 4.0 100 0.0 ENE 6 7 3 4 1010.2 1010.2 0.2
28/07:00am 4.1 2.4 4.1 100 0.0 ENE 2 7 1 4 1010.0 1010.0 0.2
28/06:30am 3.9 1.8 3.9 100 0.0 ENE 4 7 2 4 1009.5 1009.5 0.2
28/06:00am 3.6 2.2 3.6 100 0.0 CALM 0 0 0 0 1009.2 1009.2 0.0
28/05:30am 3.7 2.3 3.7 100 0.0 CALM 0 0 0 0 1008.8 1008.8 0.0
28/05:00am 4.0 1.5 4.0 100 0.0 ENE 6 6 3 3 1008.8 1008.8 0.0
28/04:30am 4.3 2.7 4.3 100 0.0 E 2 6 1 3 1008.5 1008.5 0.0
28/04:00am 4.8 3.6 4.8 100 0.0 CALM 0 0 0 0 1008.3 1008.3 0.0
28/03:30am 4.9 3.8 4.9 100 0.0 CALM 0 0 0 0 1008.2 1008.2 0.0
28/03:00am 5.6 3.5 5.6 100 0.0 E 6 11 3 6 1008.3 1008.3 0.0
28/02:30am 5.8 3.5 5.8 100 0.0 E 7 9 4 5 1008.2 1008.2 0.0
28/02:00am 6.2 4.9 6.1 99 0.0 E 2 7 1 4 1008.2 1008.2 0.0
28/01:30am 6.6 5.0 6.5 99 0.0 E 4 7 2 4 1008.2 1008.2 0.0
28/01:00am 6.7 4.8 6.6 99 0.0 E 6 9 3 5 1008.2 1008.2 0.0
28/12:30am 6.4 4.8 6.4 100 0.0 ENE 4 7 2 4 1008.3 1008.3 0.0
28/12:00am 6.2 4.9 6.2 100 0.0 NE 2 6 1 3 1008.3 1008.3 0.0
 
Date/Time
EST
Temp
°C
App
Temp
°C
Dew
Point
Rel
Hum
%
Delta-T
°C
Wind Press
QNH
hPa
Press
MSL
hPa
Rain
since 9 am
mm
Dir
 
Spd
km/h
Gust
km/h
Spd
kts
Gust
kts
27/11:30pm 6.0 4.7 6.0 100 0.0 ENE 2 7 1 4 1008.3 1008.3 0.0
27/11:00pm 6.0 5.1 5.9 99 0.0 CALM 0 6 0 3 1008.2 1008.2 0.0
27/10:30pm 6.3 3.7 6.2 99 0.0 ENE 9 11 5 6 1008.1 1008.1 0.0
27/10:00pm 6.7 4.8 6.6 99 0.0 ENE 6 9 3 5 1008.1 1008.1 0.0
27/09:30pm 7.0 5.1 6.9 99 0.0 ENE 6 9 3 5 1008.1 1008.1 0.0
27/09:00pm 7.2 6.5 7.1 99 0.0 CALM 0 6 0 3 1007.9 1007.9 0.0
27/08:30pm 7.4 5.1 7.3 99 0.0 ENE 9 13 5 7 1007.8 1007.8 0.0
27/08:00pm 7.9 5.8 6.7 92 0.6 ESE 7 11 4 6 1007.7 1007.7 0.0
27/07:30pm 8.7 7.9 6.7 87 0.9 CALM 0 0 0 0 1007.7 1007.7 0.0
27/07:00pm 8.3 7.6 6.9 91 0.7 CALM 0 0 0 0 1007.4 1007.4 0.0
27/06:30pm 9.3 8.5 6.4 82 1.3 CALM 0 0 0 0 1007.3 1007.3 0.0
27/06:00pm 10.2 9.3 6.0 75 2.0 CALM 0 0 0 0 1007.0 1007.0 0.0
27/05:30pm 11.0 10.1 6.2 72 2.2 CALM 0 0 0 0 1006.9 1006.9 0.0
27/05:00pm 11.9 10.7 4.6 61 3.3 CALM 0 0 0 0 1006.8 1006.8 0.0
27/04:30pm 13.2 12.1 5.1 58 3.8 CALM 0 0 0 0 1006.7 1006.7 0.0
27/04:00pm 12.9 11.7 4.6 57 3.8 CALM 0 0 0 0 1006.7 1006.7 0.0
27/03:30pm 13.0 10.8 5.4 60 3.6 WSW 6 7 3 4 1006.7 1006.7 0.0
27/03:00pm 13.6 10.9 5.7 59 3.8 SW 9 13 5 7 1006.6 1006.6 0.0
27/02:30pm 13.7 11.0 5.6 58 3.8 SW 9 15 5 8 1006.5 1006.5 0.0
27/02:00pm 12.8 10.4 6.8 67 2.9 SSW 9 17 5 9 1006.6 1006.6 0.0
27/01:30pm 13.0 10.0 6.1 63 3.3 SSW 11 19 6 10 1006.7 1006.7 0.0
27/01:00pm 12.8 10.4 7.0 68 2.8 SW 9 13 5 7 1007.0 1007.0 0.0
27/12:30pm 12.8 9.9 6.6 66 3.0 WSW 11 20 6 11 1007.2 1007.2 0.0
27/12:00pm 12.9 9.8 7.1 68 2.8 WSW 13 20 7 11 1007.4 1007.4 0.0
27/11:30am 13.6 11.3 8.9 73 2.4 W 11 19 6 10 1007.8 1007.8 0.0
27/11:00am 12.5 9.7 8.4 76 2.0 W 13 19 7 10 1008.0 1008.0 0.0
27/10:30am 11.4 7.6 7.7 78 1.8 W 17 28 9 15 1008.1 1008.1 0.0
27/10:00am 10.7 8.3 8.5 86 1.1 W 11 19 6 10 1008.1 1008.1 0.0
27/09:30am 10.0 7.4 7.9 87 1.0 W 11 19 6 10 1008.2 1008.2 0.0
27/09:00am 9.4 7.2 7.7 89 0.8 W 9 15 5 8 1008.0 1008.0 7.2
27/08:30am 9.0 6.0 7.8 92 0.6 W 13 22 7 12 1007.9 1007.9 7.2
27/08:00am 8.3 5.2 7.4 94 0.4 W 13 19 7 10 1007.6 1007.6 7.2
27/07:30am 8.3 6.0 7.4 94 0.4 WNW 9 15 5 8 1007.5 1007.5 7.2
27/07:00am 8.4 6.4 7.3 93 0.5 WNW 7 17 4 9 1007.4 1007.4 7.2
27/06:30am 8.5 6.2 7.3 92 0.6 W 9 13 5 7 1007.4 1007.4 7.2
27/06:00am 8.4 6.4 7.3 93 0.5 W 7 13 4 7 1007.2 1007.2 7.2
27/05:30am 8.4 6.0 7.2 92 0.6 W 9 15 5 8 1007.2 1007.2 7.2
27/05:00am 8.5 5.7 6.8 89 0.8 W 11 20 6 11 1007.3 1007.3 7.2
27/04:30am 8.3 5.2 7.2 93 0.5 W 13 20 7 11 1007.2 1007.2 7.2
27/04:00am 7.5 6.0 6.9 96 0.3 W 4 7 2 4 1006.9 1006.9 7.2
27/03:30am 7.4 5.5 6.8 96 0.3 W 6 11 3 6 1006.9 1006.9 7.2
27/03:00am 7.7 5.3 6.8 94 0.4 W 9 17 5 9 1007.0 1007.0 7.2
27/02:30am 7.7 5.7 7.1 96 0.3 W 7 11 4 6 1007.2 1007.2 7.2
27/02:00am 7.7 5.6 6.8 94 0.4 W 7 13 4 7 1007.1 1007.1 7.2
27/01:30am 7.8 5.0 7.1 95 0.3 WNW 11 20 6 11 1006.9 1006.9 7.2
27/01:00am 7.7 5.0 7.3 97 0.2 W 11 17 6 9 1006.9 1006.9 7.0
27/12:30am 7.5 5.2 7.4 99 0.0 WNW 9 17 5 9 1007.1 1007.1 7.0
27/12:00am 7.6 5.7 7.5 99 0.0 W 7 11 4 6 1007.2 1007.2 7.0
 
Date/Time
EST
Temp
°C
App
Temp
°C
Dew
Point
Rel
Hum
%
Delta-T
°C
Wind Press
QNH
hPa
Press
MSL
hPa
Rain
since 9 am
mm
Dir
 
Spd
km/h
Gust
km/h
Spd
kts
Gust
kts
26/11:30pm 7.7 6.0 7.4 98 0.1 W 6 11 3 6 1007.1 1007.1 7.0
26/11:00pm 7.9 5.6 7.6 98 0.1 W 9 13 5 7 1007.1 1007.1 7.0
26/10:30pm 8.1 5.9 7.8 98 0.1 W 9 17 5 9 1007.1 1007.1 7.0
26/10:00pm 8.5 6.4 8.2 98 0.1 W 9 13 5 7 1007.3 1007.3 7.0
26/09:30pm 8.8 6.0 8.7 99 0.0 W 13 20 7 11 1007.1 1007.1 7.0
26/09:00pm 9.2 6.5 8.9 98 0.1 W 13 19 7 10 1006.9 1006.9 7.0
26/08:30pm 9.8 6.9 9.5 98 0.1 W 15 24 8 13 1006.7 1006.7 7.0
26/08:00pm 9.7 7.2 9.6 99 0.1 W 13 20 7 11 1006.4 1006.4 7.0
26/07:30pm 9.8 7.7 9.7 99 0.1 W 11 17 6 9 1006.1 1006.1 7.0
26/07:00pm 9.9 8.6 9.9 100 0.0 WSW 7 11 4 6 1006.0 1006.0 7.0
26/06:30pm 10.1 8.1 10.1 100 0.0 SSW 11 17 6 9 1005.7 1005.7 7.0
26/06:00pm 10.1 8.5 10.1 100 0.0 WNW 9 15 5 8 1005.1 1005.1 6.8
26/05:30pm 9.9 7.5 9.9 100 0.0 WSW 13 20 7 11 1004.7 1004.7 6.8
26/05:00pm 10.9 8.4 10.9 100 0.0 WSW 15 24 8 13 1004.6 1004.6 6.2
26/04:30pm 11.0 8.1 11.0 100 0.0 W 17 24 9 13 1004.0 1004.0 6.2
26/04:00pm 11.3 9.2 11.3 100 0.0 W 13 22 7 12 1003.8 1003.8 6.2
26/03:30pm 11.3 9.2 11.3 100 0.0 W 13 22 7 12 1003.5 1003.5 6.2
26/03:00pm 11.1 8.6 11.1 100 0.0 W 15 22 8 12 1003.3 1003.3 6.0
26/02:30pm 11.1 9.8 11.1 100 0.0 WSW 9 15 5 8 1003.1 1003.1 5.8
26/02:00pm 11.1 10.1 11.1 100 0.0 SW 7 11 4 6 1003.0 1003.0 4.4
26/01:30pm 10.7 8.9 10.7 100 0.0 SW 11 17 6 9 1003.0 1003.0 4.0
26/01:00pm 10.7 8.1 10.7 100 0.0 WSW 15 24 8 13 1002.9 1002.9 2.6
26/12:30pm 10.8 9.0 10.8 100 0.0 SW 11 20 6 11 1002.8 1002.8 2.4
26/12:00pm 10.8 8.6 10.8 100 0.0 WSW 13 20 7 11 1002.8 1002.8 2.0
26/11:30am 11.0 9.6 11.0 100 0.0 WNW 9 20 5 11 1003.0 1003.0 1.8
26/11:00am 10.8 9.0 10.8 100 0.0 NW 11 17 6 9 1003.2 1003.2 1.2
26/10:30am 10.4 8.1 10.4 100 0.0 NNW 13 22 7 12 1003.4 1003.4 1.0
26/10:00am 10.2 9.5 10.2 100 0.0 NNE 4 7 2 4 1003.4 1003.4 0.6
26/09:30am 10.0 9.7 10.0 100 0.0 NE 2 7 1 4 1003.6 1003.6 0.4
26/09:00am 9.9 9.5 9.9 100 0.0 ENE 2 6 1 3 1003.7 1003.7 12.4
26/08:30am 9.8 9.8 9.8 100 0.0 CALM 0 0 0 0 1003.6 1003.6 11.8
26/08:00am 9.7 9.3 9.7 100 0.0 ENE 2 6 1 3 1003.6 1003.6 11.4
26/07:30am 9.8 9.8 9.8 100 0.0 CALM 0 0 0 0 1003.6 1003.6 10.8
26/07:00am 9.8 9.8 9.8 100 0.0 CALM 0 6 0 3 1003.5 1003.5 10.4
26/06:30am 9.8 9.8 9.8 100 0.0 CALM 0 6 0 3 1003.7 1003.7 10.4
26/06:00am 9.8 8.5 9.8 100 0.0 ENE 7 11 4 6 1003.8 1003.8 10.4
26/05:30am 9.9 8.8 9.9 100 0.0 NE 6 9 3 5 1004.1 1004.1 10.4
26/05:00am 10.4 8.3 9.9 97 0.3 NNE 11 28 6 15 1004.4 1004.4 10.2
26/04:30am 9.9 8.6 9.9 100 0.0 ENE 7 11 4 6 1004.3 1004.3 10.2
26/04:00am 10.0 9.3 10.0 100 0.0 ENE 4 7 2 4 1004.6 1004.6 10.2
26/03:30am 10.0 8.9 10.0 100 0.0 NE 6 9 3 5 1004.9 1004.9 10.2
26/03:00am 10.0 8.9 10.0 100 0.0 ENE 6 11 3 6 1005.3 1005.3 10.2
26/02:30am 10.2 8.9 10.1 99 0.1 ENE 7 11 4 6 1005.6 1005.6 9.8
26/02:00am 10.3 9.2 10.1 99 0.1 NE 6 13 3 7 1006.1 1006.1 9.4
26/01:30am 9.9 8.6 9.9 100 0.0 ENE 7 15 4 8 1006.2 1006.2 9.4
26/01:00am 9.9 8.8 9.8 99 0.1 ENE 6 9 3 5 1006.6 1006.6 9.2
26/12:30am 10.2 8.5 9.9 98 0.2 NE 9 22 5 12 1006.8 1006.8 9.2
26/12:00am 10.4 8.0 9.9 97 0.3 NNE 13 24 7 13 1007.7 1007.7 9.0
 
Date/Time
EST
Temp
°C
App
Temp
°C
Dew
Point
Rel
Hum
%
Delta-T
°C
Wind Press
QNH
hPa
Press
MSL
hPa
Rain
since 9 am
mm
Dir
 
Spd
km/h
Gust
km/h
Spd
kts
Gust
kts
25/11:30pm 10.6 7.8 10.1 97 0.3 NNE 15 30 8 16 1007.8 1007.8 8.4
25/11:00pm 10.6 7.9 10.4 99 0.1 NNE 15 28 8 15 1008.3 1008.3 7.0
25/10:30pm 10.9 7.2 9.5 91 0.7 NNE 19 35 10 19 1008.5 1008.5 5.0
25/10:00pm 11.5 8.0 8.7 83 1.4 NNE 17 41 9 22 1008.5 1008.5 4.2
25/09:30pm 11.2 8.1 10.4 95 0.4 NNE 17 32 9 17 1008.7 1008.7 4.0
25/09:00pm 11.4 7.1 10.6 95 0.4 NNE 24 46 13 25 1008.4 1008.4 3.6
25/08:30pm 11.5 8.1 10.7 95 0.4 NNE 19 35 10 19 1008.8 1008.8 3.0
25/08:00pm 11.9 9.5 10.1 89 0.9 NNE 13 24 7 13 1009.2 1009.2 2.2
25/07:30pm 12.6 8.8 9.1 79 1.8 NNE 19 33 10 18 1009.4 1009.4 2.0
25/07:00pm 12.9 8.9 8.4 74 2.2 N 19 39 10 21 1009.2 1009.2 2.0
25/06:30pm 12.6 9.7 8.3 75 2.1 NNE 13 24 7 13 1009.2 1009.2 1.8
25/06:00pm 13.2 9.2 8.1 71 2.5 NNE 19 33 10 18 1009.5 1009.5 1.8
25/05:30pm 12.9 10.6 9.0 77 2.0 N 11 19 6 10 1009.3 1009.3 1.8
25/05:00pm 13.4 9.0 8.9 74 2.3 NNE 22 37 12 20 1009.4 1009.4 1.8
25/04:30pm 12.8 9.9 9.6 81 1.6 NNE 15 28 8 15 1009.6 1009.6 1.8
25/04:00pm 11.9 10.8 10.6 92 0.7 ENE 7 13 4 7 1010.0 1010.0 1.6
25/03:30pm 12.6 10.8 9.4 81 1.6 ENE 9 15 5 8 1010.4 1010.4 0.8
25/03:00pm 13.8 10.0 7.6 66 3.1 NE 17 41 9 22 1010.5 1010.5 0.4
25/02:30pm 13.8 9.5 8.0 68 2.9 NNE 20 39 11 21 1010.7 1010.7 0.2

Other Formats:

Comma delimited format used in spreadsheet applications
http://www.bom.gov.au/fwo/IDV60801/IDV60801.95874.axf

JavaScript Object Notation format (JSON) in row-major order
http://www.bom.gov.au/fwo/IDV60801/IDV60801.95874.json